sensor_id;sensor_type;location;lat;lon;timestamp;temperature;humidity
52531;DHT22;38441;52.894;6.040;2023-04-30T00:10:08;9.10;99.90
52531;DHT22;38441;52.894;6.040;2023-04-30T00:15:00;9.10;99.90
52531;DHT22;38441;52.894;6.040;2023-04-30T00:29:36;8.90;99.90
52531;DHT22;38441;52.894;6.040;2023-04-30T00:51:32;8.50;99.90
52531;DHT22;38441;52.894;6.040;2023-04-30T00:54:01;8.30;99.90
52531;DHT22;38441;52.894;6.040;2023-04-30T00:56:28;8.40;99.90
52531;DHT22;38441;52.894;6.040;2023-04-30T01:01:26;8.50;99.90
52531;DHT22;38441;52.894;6.040;2023-04-30T01:06:22;8.40;99.90
52531;DHT22;38441;52.894;6.040;2023-04-30T01:17:04;8.20;99.90
52531;DHT22;38441;52.894;6.040;2023-04-30T01:19:46;8.10;99.90
52531;DHT22;38441;52.894;6.040;2023-04-30T01:25:11;8.10;99.90
52531;DHT22;38441;52.894;6.040;2023-04-30T01:28:12;8.10;99.90
52531;DHT22;38441;52.894;6.040;2023-04-30T01:30:40;7.90;99.90
52531;DHT22;38441;52.894;6.040;2023-04-30T01:40:58;8.00;99.90
52531;DHT22;38441;52.894;6.040;2023-04-30T01:46:28;8.00;99.90
52531;DHT22;38441;52.894;6.040;2023-04-30T01:51:39;7.70;99.90
52531;DHT22;38441;52.894;6.040;2023-04-30T01:54:15;8.00;99.90
52531;DHT22;38441;52.894;6.040;2023-04-30T01:56:48;7.80;99.90
52531;DHT22;38441;52.894;6.040;2023-04-30T02:26:06;7.50;99.90
52531;DHT22;38441;52.894;6.040;2023-04-30T03:51:19;6.90;99.90
52531;DHT22;38441;52.894;6.040;2023-04-30T04:45:05;6.40;99.90
52531;DHT22;38441;52.894;6.040;2023-04-30T05:24:04;6.80;99.90
52531;DHT22;38441;52.894;6.040;2023-04-30T05:48:31;7.00;99.90
52531;DHT22;38441;52.894;6.040;2023-04-30T05:50:56;6.90;99.90
52531;DHT22;38441;52.894;6.040;2023-04-30T05:53:27;6.90;99.90
52531;DHT22;38441;52.894;6.040;2023-04-30T05:55:55;7.00;99.90
52531;DHT22;38441;52.894;6.040;2023-04-30T06:00:51;7.20;99.90
52531;DHT22;38441;52.894;6.040;2023-04-30T06:03:18;7.30;99.90
52531;DHT22;38441;52.894;6.040;2023-04-30T06:54:26;8.80;99.90
52531;DHT22;38441;52.894;6.040;2023-04-30T06:56:52;8.80;99.90
52531;DHT22;38441;52.894;6.040;2023-04-30T07:16:23;9.50;99.90
52531;DHT22;38441;52.894;6.040;2023-04-30T07:28:35;9.70;99.90
52531;DHT22;38441;52.894;6.040;2023-04-30T07:33:27;9.90;99.90
52531;DHT22;38441;52.894;6.040;2023-04-30T07:38:20;10.00;99.90
52531;DHT22;38441;52.894;6.040;2023-04-30T07:40:46;10.10;99.90
52531;DHT22;38441;52.894;6.040;2023-04-30T07:48:04;10.20;99.90
52531;DHT22;38441;52.894;6.040;2023-04-30T07:50:30;10.40;99.90
52531;DHT22;38441;52.894;6.040;2023-04-30T07:52:58;10.40;99.90
52531;DHT22;38441;52.894;6.040;2023-04-30T07:55:25;10.40;99.90
52531;DHT22;38441;52.894;6.040;2023-04-30T07:57:50;10.40;99.90
52531;DHT22;38441;52.894;6.040;2023-04-30T08:02:42;10.70;99.90
52531;DHT22;38441;52.894;6.040;2023-04-30T08:05:12;10.80;99.90
52531;DHT22;38441;52.894;6.040;2023-04-30T08:07:38;10.90;99.90
52531;DHT22;38441;52.894;6.040;2023-04-30T08:10:04;10.90;99.90
52531;DHT22;38441;52.894;6.040;2023-04-30T08:12:30;11.00;99.90
52531;DHT22;38441;52.894;6.040;2023-04-30T08:15:02;11.10;99.90
52531;DHT22;38441;52.894;6.040;2023-04-30T08:19:55;11.20;99.90
52531;DHT22;38441;52.894;6.040;2023-04-30T08:22:21;11.20;99.90
52531;DHT22;38441;52.894;6.040;2023-04-30T08:24:47;11.90;99.90
52531;DHT22;38441;52.894;6.040;2023-04-30T08:27:12;11.50;99.90
52531;DHT22;38441;52.894;6.040;2023-04-30T08:29:38;11.60;99.90
52531;DHT22;38441;52.894;6.040;2023-04-30T08:32:04;11.60;99.90
52531;DHT22;38441;52.894;6.040;2023-04-30T08:34:30;11.80;99.90
52531;DHT22;38441;52.894;6.040;2023-04-30T08:36:56;12.70;99.90
52531;DHT22;38441;52.894;6.040;2023-04-30T08:39:22;12.50;99.90
52531;DHT22;38441;52.894;6.040;2023-04-30T08:41:54;13.60;99.90
52531;DHT22;38441;52.894;6.040;2023-04-30T08:44:21;12.00;99.90
52531;DHT22;38441;52.894;6.040;2023-04-30T08:46:52;10.40;99.90
52531;DHT22;38441;52.894;6.040;2023-04-30T08:49:19;13.80;99.90
52531;DHT22;38441;52.894;6.040;2023-04-30T08:51:46;12.20;99.90
52531;DHT22;38441;52.894;6.040;2023-04-30T08:54:12;11.20;99.90
52531;DHT22;38441;52.894;6.040;2023-04-30T08:56:39;10.50;99.90
52531;DHT22;38441;52.894;6.040;2023-04-30T08:59:05;13.20;99.90
52531;DHT22;38441;52.894;6.040;2023-04-30T09:01:31;13.90;99.90
52531;DHT22;38441;52.894;6.040;2023-04-30T09:03:58;13.50;99.90
52531;DHT22;38441;52.894;6.040;2023-04-30T09:06:23;13.90;99.90
52531;DHT22;38441;52.894;6.040;2023-04-30T09:08:49;14.00;99.90
52531;DHT22;38441;52.894;6.040;2023-04-30T09:11:30;13.70;99.90
52531;DHT22;38441;52.894;6.040;2023-04-30T09:13:58;12.60;99.90
52531;DHT22;38441;52.894;6.040;2023-04-30T09:16:26;12.70;99.90
52531;DHT22;38441;52.894;6.040;2023-04-30T09:18:52;13.10;99.90
52531;DHT22;38441;52.894;6.040;2023-04-30T09:21:38;15.60;99.90
52531;DHT22;38441;52.894;6.040;2023-04-30T09:24:04;13.30;99.90
52531;DHT22;38441;52.894;6.040;2023-04-30T09:26:32;13.50;99.90
52531;DHT22;38441;52.894;6.040;2023-04-30T09:28:58;12.40;99.90
52531;DHT22;38441;52.894;6.040;2023-04-30T09:31:25;14.90;99.90
52531;DHT22;38441;52.894;6.040;2023-04-30T09:33:51;15.00;99.90
52531;DHT22;38441;52.894;6.040;2023-04-30T09:36:19;14.70;99.90
52531;DHT22;38441;52.894;6.040;2023-04-30T09:38:45;13.70;99.90
52531;DHT22;38441;52.894;6.040;2023-04-30T09:41:25;13.20;99.90
52531;DHT22;38441;52.894;6.040;2023-04-30T09:43:55;13.10;99.90
52531;DHT22;38441;52.894;6.040;2023-04-30T09:46:32;14.50;99.90
52531;DHT22;38441;52.894;6.040;2023-04-30T09:49:00;14.10;99.90
52531;DHT22;38441;52.894;6.040;2023-04-30T09:51:26;14.20;99.90
52531;DHT22;38441;52.894;6.040;2023-04-30T09:53:53;15.00;99.90
52531;DHT22;38441;52.894;6.040;2023-04-30T09:56:23;15.10;99.90
52531;DHT22;38441;52.894;6.040;2023-04-30T09:58:51;14.10;99.90
52531;DHT22;38441;52.894;6.040;2023-04-30T10:01:19;16.30;99.90
52531;DHT22;38441;52.894;6.040;2023-04-30T10:03:44;14.00;99.90
52531;DHT22;38441;52.894;6.040;2023-04-30T10:06:14;13.40;99.90
52531;DHT22;38441;52.894;6.040;2023-04-30T10:08:46;15.60;99.90
52531;DHT22;38441;52.894;6.040;2023-04-30T10:11:18;16.10;99.90
52531;DHT22;38441;52.894;6.040;2023-04-30T10:13:54;13.30;99.90
52531;DHT22;38441;52.894;6.040;2023-04-30T10:16:36;14.50;99.90
52531;DHT22;38441;52.894;6.040;2023-04-30T10:19:25;14.70;99.90
52531;DHT22;38441;52.894;6.040;2023-04-30T10:21:54;17.10;99.90
52531;DHT22;38441;52.894;6.040;2023-04-30T10:24:20;13.60;99.90
52531;DHT22;38441;52.894;6.040;2023-04-30T10:26:47;14.40;99.90
52531;DHT22;38441;52.894;6.040;2023-04-30T10:29:14;15.60;99.90
52531;DHT22;38441;52.894;6.040;2023-04-30T10:31:41;16.70;99.90
52531;DHT22;38441;52.894;6.040;2023-04-30T10:36:53;16.60;99.90
52531;DHT22;38441;52.894;6.040;2023-04-30T10:39:22;17.50;99.90
52531;DHT22;38441;52.894;6.040;2023-04-30T10:42:02;17.40;99.90
52531;DHT22;38441;52.894;6.040;2023-04-30T10:44:34;15.70;99.90
52531;DHT22;38441;52.894;6.040;2023-04-30T10:47:01;15.90;99.90
52531;DHT22;38441;52.894;6.040;2023-04-30T10:49:28;15.10;99.90
52531;DHT22;38441;52.894;6.040;2023-04-30T10:51:54;17.60;99.90
52531;DHT22;38441;52.894;6.040;2023-04-30T10:54:27;17.80;99.90
52531;DHT22;38441;52.894;6.040;2023-04-30T10:57:07;15.80;99.90
52531;DHT22;38441;52.894;6.040;2023-04-30T10:59:34;14.30;99.90
52531;DHT22;38441;52.894;6.040;2023-04-30T11:02:01;16.70;99.90
52531;DHT22;38441;52.894;6.040;2023-04-30T11:04:27;17.10;99.90
52531;DHT22;38441;52.894;6.040;2023-04-30T11:07:08;17.80;99.90
52531;DHT22;38441;52.894;6.040;2023-04-30T11:09:42;16.50;99.90
52531;DHT22;38441;52.894;6.040;2023-04-30T11:12:18;15.90;99.90
52531;DHT22;38441;52.894;6.040;2023-04-30T11:14:45;18.20;99.90
52531;DHT22;38441;52.894;6.040;2023-04-30T11:17:23;18.20;99.90
52531;DHT22;38441;52.894;6.040;2023-04-30T11:19:51;15.90;99.90
52531;DHT22;38441;52.894;6.040;2023-04-30T11:22:20;17.20;99.90
52531;DHT22;38441;52.894;6.040;2023-04-30T11:27:21;17.60;99.90
52531;DHT22;38441;52.894;6.040;2023-04-30T11:29:48;18.20;99.90
52531;DHT22;38441;52.894;6.040;2023-04-30T11:32:14;17.10;99.90
52531;DHT22;38441;52.894;6.040;2023-04-30T11:34:42;17.50;99.90
52531;DHT22;38441;52.894;6.040;2023-04-30T11:37:08;18.20;99.90
52531;DHT22;38441;52.894;6.040;2023-04-30T11:39:37;17.80;99.90
52531;DHT22;38441;52.894;6.040;2023-04-30T11:42:04;17.10;99.90
52531;DHT22;38441;52.894;6.040;2023-04-30T11:44:30;17.70;99.90
52531;DHT22;38441;52.894;6.040;2023-04-30T11:46:56;16.50;99.90
52531;DHT22;38441;52.894;6.040;2023-04-30T11:49:22;18.80;99.90
52531;DHT22;38441;52.894;6.040;2023-04-30T11:51:48;18.00;99.90
52531;DHT22;38441;52.894;6.040;2023-04-30T11:54:15;16.40;99.90
52531;DHT22;38441;52.894;6.040;2023-04-30T11:56:45;17.90;99.90
52531;DHT22;38441;52.894;6.040;2023-04-30T11:59:13;18.30;99.90
52531;DHT22;38441;52.894;6.040;2023-04-30T12:01:39;17.00;99.90
52531;DHT22;38441;52.894;6.040;2023-04-30T12:04:05;18.10;99.90
52531;DHT22;38441;52.894;6.040;2023-04-30T12:06:31;18.00;99.90
52531;DHT22;38441;52.894;6.040;2023-04-30T12:08:59;19.30;99.90
52531;DHT22;38441;52.894;6.040;2023-04-30T12:11:36;17.60;99.90
52531;DHT22;38441;52.894;6.040;2023-04-30T12:14:06;17.30;99.90
52531;DHT22;38441;52.894;6.040;2023-04-30T12:16:49;18.10;99.90
52531;DHT22;38441;52.894;6.040;2023-04-30T12:19:19;19.10;99.90
52531;DHT22;38441;52.894;6.040;2023-04-30T12:21:46;18.10;99.90
52531;DHT22;38441;52.894;6.040;2023-04-30T12:24:13;18.40;99.90
52531;DHT22;38441;52.894;6.040;2023-04-30T12:26:40;18.40;99.90
52531;DHT22;38441;52.894;6.040;2023-04-30T12:29:14;17.10;99.90
52531;DHT22;38441;52.894;6.040;2023-04-30T12:31:40;17.40;99.90
52531;DHT22;38441;52.894;6.040;2023-04-30T12:34:13;16.20;99.90
52531;DHT22;38441;52.894;6.040;2023-04-30T12:36:40;19.00;99.90
52531;DHT22;38441;52.894;6.040;2023-04-30T12:39:13;18.10;99.90
52531;DHT22;38441;52.894;6.040;2023-04-30T12:41:40;17.60;99.90
52531;DHT22;38441;52.894;6.040;2023-04-30T12:44:14;17.30;99.90
52531;DHT22;38441;52.894;6.040;2023-04-30T12:46:40;19.20;99.90
52531;DHT22;38441;52.894;6.040;2023-04-30T12:49:06;18.70;99.90
52531;DHT22;38441;52.894;6.040;2023-04-30T12:51:34;19.20;99.90
52531;DHT22;38441;52.894;6.040;2023-04-30T12:54:00;19.20;99.90
52531;DHT22;38441;52.894;6.040;2023-04-30T12:56:26;19.10;99.90
52531;DHT22;38441;52.894;6.040;2023-04-30T12:58:51;18.80;99.90
52531;DHT22;38441;52.894;6.040;2023-04-30T13:01:19;19.30;99.90
52531;DHT22;38441;52.894;6.040;2023-04-30T13:03:46;19.10;99.90
52531;DHT22;38441;52.894;6.040;2023-04-30T13:06:11;19.70;99.90
52531;DHT22;38441;52.894;6.040;2023-04-30T13:08:37;18.70;99.90
52531;DHT22;38441;52.894;6.040;2023-04-30T13:11:03;19.40;99.90
52531;DHT22;38441;52.894;6.040;2023-04-30T13:13:29;18.20;99.90
52531;DHT22;38441;52.894;6.040;2023-04-30T13:15:55;19.30;99.90
52531;DHT22;38441;52.894;6.040;2023-04-30T13:18:21;19.80;99.90
52531;DHT22;38441;52.894;6.040;2023-04-30T13:20:46;19.60;99.90
52531;DHT22;38441;52.894;6.040;2023-04-30T13:23:12;20.50;99.90
52531;DHT22;38441;52.894;6.040;2023-04-30T13:25:39;20.50;99.90
52531;DHT22;38441;52.894;6.040;2023-04-30T13:28:05;19.30;99.90
52531;DHT22;38441;52.894;6.040;2023-04-30T13:30:31;17.50;99.90
52531;DHT22;38441;52.894;6.040;2023-04-30T13:32:56;20.10;99.90
52531;DHT22;38441;52.894;6.040;2023-04-30T13:35:23;20.10;99.90
52531;DHT22;38441;52.894;6.040;2023-04-30T13:37:49;18.30;99.90
52531;DHT22;38441;52.894;6.040;2023-04-30T13:40:17;19.20;99.90
52531;DHT22;38441;52.894;6.040;2023-04-30T13:42:44;19.40;99.90
52531;DHT22;38441;52.894;6.040;2023-04-30T13:45:11;19.40;99.90
52531;DHT22;38441;52.894;6.040;2023-04-30T13:47:37;18.70;99.90
52531;DHT22;38441;52.894;6.040;2023-04-30T13:50:03;18.90;99.90
52531;DHT22;38441;52.894;6.040;2023-04-30T13:52:30;15.60;99.90
52531;DHT22;38441;52.894;6.040;2023-04-30T13:54:55;17.80;99.90
52531;DHT22;38441;52.894;6.040;2023-04-30T13:57:22;18.00;99.90
52531;DHT22;38441;52.894;6.040;2023-04-30T13:59:48;19.10;99.90
52531;DHT22;38441;52.894;6.040;2023-04-30T14:02:14;19.60;99.90
52531;DHT22;38441;52.894;6.040;2023-04-30T14:04:40;19.30;99.90
52531;DHT22;38441;52.894;6.040;2023-04-30T14:07:06;20.20;99.90
52531;DHT22;38441;52.894;6.040;2023-04-30T14:09:32;18.50;99.90
52531;DHT22;38441;52.894;6.040;2023-04-30T14:11:57;19.50;99.90
52531;DHT22;38441;52.894;6.040;2023-04-30T14:14:26;19.50;99.90
52531;DHT22;38441;52.894;6.040;2023-04-30T14:16:52;19.60;99.90
52531;DHT22;38441;52.894;6.040;2023-04-30T14:19:19;19.20;99.90
52531;DHT22;38441;52.894;6.040;2023-04-30T14:21:45;20.10;99.90
52531;DHT22;38441;52.894;6.040;2023-04-30T14:24:11;18.70;99.90
52531;DHT22;38441;52.894;6.040;2023-04-30T14:26:37;20.70;99.90
52531;DHT22;38441;52.894;6.040;2023-04-30T14:29:05;20.00;99.90
52531;DHT22;38441;52.894;6.040;2023-04-30T14:31:30;20.20;99.90
52531;DHT22;38441;52.894;6.040;2023-04-30T14:33:56;20.00;99.90
52531;DHT22;38441;52.894;6.040;2023-04-30T14:36:22;21.00;99.90
52531;DHT22;38441;52.894;6.040;2023-04-30T14:38:47;21.80;99.90
52531;DHT22;38441;52.894;6.040;2023-04-30T14:41:13;19.00;99.90
52531;DHT22;38441;52.894;6.040;2023-04-30T14:43:39;19.70;99.90
52531;DHT22;38441;52.894;6.040;2023-04-30T14:46:05;21.10;99.90
52531;DHT22;38441;52.894;6.040;2023-04-30T14:48:31;19.90;99.90
52531;DHT22;38441;52.894;6.040;2023-04-30T14:50:58;19.50;99.90
52531;DHT22;38441;52.894;6.040;2023-04-30T14:53:23;19.50;99.90
52531;DHT22;38441;52.894;6.040;2023-04-30T14:55:49;20.30;99.90
52531;DHT22;38441;52.894;6.040;2023-04-30T14:58:15;20.30;99.90
52531;DHT22;38441;52.894;6.040;2023-04-30T15:00:40;20.00;99.90
52531;DHT22;38441;52.894;6.040;2023-04-30T15:03:06;18.80;99.90
52531;DHT22;38441;52.894;6.040;2023-04-30T15:05:31;18.70;99.90
52531;DHT22;38441;52.894;6.040;2023-04-30T15:07:57;17.60;99.90
52531;DHT22;38441;52.894;6.040;2023-04-30T15:10:23;19.50;99.90
52531;DHT22;38441;52.894;6.040;2023-04-30T15:12:48;19.80;99.90
52531;DHT22;38441;52.894;6.040;2023-04-30T15:15:14;18.70;99.90
52531;DHT22;38441;52.894;6.040;2023-04-30T15:17:39;20.40;99.90
52531;DHT22;38441;52.894;6.040;2023-04-30T15:20:06;20.30;99.90
52531;DHT22;38441;52.894;6.040;2023-04-30T15:22:32;17.60;99.90
52531;DHT22;38441;52.894;6.040;2023-04-30T15:24:58;19.10;99.90
52531;DHT22;38441;52.894;6.040;2023-04-30T15:27:27;20.20;99.90
52531;DHT22;38441;52.894;6.040;2023-04-30T15:29:53;17.90;99.90
52531;DHT22;38441;52.894;6.040;2023-04-30T15:32:19;20.50;99.90
52531;DHT22;38441;52.894;6.040;2023-04-30T15:34:45;19.70;99.90
52531;DHT22;38441;52.894;6.040;2023-04-30T15:37:10;19.00;99.90
52531;DHT22;38441;52.894;6.040;2023-04-30T15:39:36;19.60;99.90
52531;DHT22;38441;52.894;6.040;2023-04-30T15:42:02;19.60;99.90
52531;DHT22;38441;52.894;6.040;2023-04-30T15:44:28;19.70;99.90
52531;DHT22;38441;52.894;6.040;2023-04-30T15:46:53;18.90;99.90
52531;DHT22;38441;52.894;6.040;2023-04-30T15:49:20;17.50;99.90
52531;DHT22;38441;52.894;6.040;2023-04-30T15:51:48;14.90;99.90
52531;DHT22;38441;52.894;6.040;2023-04-30T15:54:13;19.40;99.90
52531;DHT22;38441;52.894;6.040;2023-04-30T15:56:39;18.30;99.90
52531;DHT22;38441;52.894;6.040;2023-04-30T15:59:05;19.10;99.90
52531;DHT22;38441;52.894;6.040;2023-04-30T16:01:31;17.60;99.90
52531;DHT22;38441;52.894;6.040;2023-04-30T16:03:57;18.60;99.90
52531;DHT22;38441;52.894;6.040;2023-04-30T16:06:24;19.00;99.90
52531;DHT22;38441;52.894;6.040;2023-04-30T16:08:51;18.70;99.90
52531;DHT22;38441;52.894;6.040;2023-04-30T16:11:19;18.40;99.90
52531;DHT22;38441;52.894;6.040;2023-04-30T16:13:47;18.60;99.90
52531;DHT22;38441;52.894;6.040;2023-04-30T16:16:12;16.70;99.90
52531;DHT22;38441;52.894;6.040;2023-04-30T16:18:38;18.70;99.90
52531;DHT22;38441;52.894;6.040;2023-04-30T16:21:04;17.80;99.90
52531;DHT22;38441;52.894;6.040;2023-04-30T16:23:33;16.70;99.90
52531;DHT22;38441;52.894;6.040;2023-04-30T16:25:59;17.60;99.90
52531;DHT22;38441;52.894;6.040;2023-04-30T16:28:25;19.00;99.90
52531;DHT22;38441;52.894;6.040;2023-04-30T16:30:53;17.30;99.90
52531;DHT22;38441;52.894;6.040;2023-04-30T16:33:20;17.80;99.90
52531;DHT22;38441;52.894;6.040;2023-04-30T16:35:46;17.00;99.90
52531;DHT22;38441;52.894;6.040;2023-04-30T16:38:13;18.30;99.90
52531;DHT22;38441;52.894;6.040;2023-04-30T16:40:38;18.30;99.90
52531;DHT22;38441;52.894;6.040;2023-04-30T16:43:04;18.00;99.90
52531;DHT22;38441;52.894;6.040;2023-04-30T16:45:33;16.90;99.90
52531;DHT22;38441;52.894;6.040;2023-04-30T16:47:59;18.20;99.90
52531;DHT22;38441;52.894;6.040;2023-04-30T16:50:26;18.50;99.90
52531;DHT22;38441;52.894;6.040;2023-04-30T16:52:54;18.40;99.90
52531;DHT22;38441;52.894;6.040;2023-04-30T16:55:20;17.80;99.90
52531;DHT22;38441;52.894;6.040;2023-04-30T16:57:46;17.30;99.90
52531;DHT22;38441;52.894;6.040;2023-04-30T17:00:12;18.20;99.90
52531;DHT22;38441;52.894;6.040;2023-04-30T17:02:42;16.50;99.90
52531;DHT22;38441;52.894;6.040;2023-04-30T17:05:12;16.30;99.90
52531;DHT22;38441;52.894;6.040;2023-04-30T17:07:40;17.50;99.90
52531;DHT22;38441;52.894;6.040;2023-04-30T17:10:07;17.50;99.90
52531;DHT22;38441;52.894;6.040;2023-04-30T17:12:33;16.30;99.90
52531;DHT22;38441;52.894;6.040;2023-04-30T17:14:58;15.20;99.90
52531;DHT22;38441;52.894;6.040;2023-04-30T17:17:24;17.80;99.90
52531;DHT22;38441;52.894;6.040;2023-04-30T17:19:49;18.20;99.90
52531;DHT22;38441;52.894;6.040;2023-04-30T17:22:15;18.00;99.90
52531;DHT22;38441;52.894;6.040;2023-04-30T17:24:46;18.90;99.90
52531;DHT22;38441;52.894;6.040;2023-04-30T17:27:12;16.50;99.90
52531;DHT22;38441;52.894;6.040;2023-04-30T17:29:38;17.10;99.90
52531;DHT22;38441;52.894;6.040;2023-04-30T17:32:04;17.90;99.90
52531;DHT22;38441;52.894;6.040;2023-04-30T17:34:30;16.10;99.90
52531;DHT22;38441;52.894;6.040;2023-04-30T17:36:56;18.10;99.90
52531;DHT22;38441;52.894;6.040;2023-04-30T17:39:22;17.10;99.90
52531;DHT22;38441;52.894;6.040;2023-04-30T17:41:48;15.80;99.90
52531;DHT22;38441;52.894;6.040;2023-04-30T17:44:17;16.80;99.90
52531;DHT22;38441;52.894;6.040;2023-04-30T17:46:44;16.90;99.90
52531;DHT22;38441;52.894;6.040;2023-04-30T17:49:09;17.90;99.90
52531;DHT22;38441;52.894;6.040;2023-04-30T17:51:35;16.50;99.90
52531;DHT22;38441;52.894;6.040;2023-04-30T17:54:01;16.60;99.90
52531;DHT22;38441;52.894;6.040;2023-04-30T17:56:27;16.10;99.90
52531;DHT22;38441;52.894;6.040;2023-04-30T17:58:56;17.10;99.90
52531;DHT22;38441;52.894;6.040;2023-04-30T18:01:22;17.80;99.90
52531;DHT22;38441;52.894;6.040;2023-04-30T18:03:48;16.30;99.90
52531;DHT22;38441;52.894;6.040;2023-04-30T18:06:14;16.90;99.90
52531;DHT22;38441;52.894;6.040;2023-04-30T18:08:39;16.80;99.90
52531;DHT22;38441;52.894;6.040;2023-04-30T18:11:05;16.20;99.90
52531;DHT22;38441;52.894;6.040;2023-04-30T18:13:32;16.10;99.90
52531;DHT22;38441;52.894;6.040;2023-04-30T18:15:58;17.10;99.90
52531;DHT22;38441;52.894;6.040;2023-04-30T18:18:24;16.40;99.90
52531;DHT22;38441;52.894;6.040;2023-04-30T18:20:49;16.40;99.90
52531;DHT22;38441;52.894;6.040;2023-04-30T18:23:16;16.40;99.90
52531;DHT22;38441;52.894;6.040;2023-04-30T18:25:41;16.10;99.90
52531;DHT22;38441;52.894;6.040;2023-04-30T18:28:08;14.80;99.90
52531;DHT22;38441;52.894;6.040;2023-04-30T18:30:34;17.60;99.90
52531;DHT22;38441;52.894;6.040;2023-04-30T18:33:02;15.90;99.90
52531;DHT22;38441;52.894;6.040;2023-04-30T18:35:28;14.80;99.90
52531;DHT22;38441;52.894;6.040;2023-04-30T18:37:54;16.60;99.90
52531;DHT22;38441;52.894;6.040;2023-04-30T18:40:20;16.50;99.90
52531;DHT22;38441;52.894;6.040;2023-04-30T18:42:46;14.60;99.90
52531;DHT22;38441;52.894;6.040;2023-04-30T18:45:11;14.80;99.90
52531;DHT22;38441;52.894;6.040;2023-04-30T18:47:38;15.90;99.90
52531;DHT22;38441;52.894;6.040;2023-04-30T18:50:05;16.40;99.90
52531;DHT22;38441;52.894;6.040;2023-04-30T18:52:32;14.50;99.90
52531;DHT22;38441;52.894;6.040;2023-04-30T18:54:58;15.20;99.90
52531;DHT22;38441;52.894;6.040;2023-04-30T18:57:23;14.30;99.90
52531;DHT22;38441;52.894;6.040;2023-04-30T18:59:49;14.80;99.90
52531;DHT22;38441;52.894;6.040;2023-04-30T19:02:15;15.20;99.90
52531;DHT22;38441;52.894;6.040;2023-04-30T19:04:41;14.80;99.90
52531;DHT22;38441;52.894;6.040;2023-04-30T19:07:06;16.20;99.90
52531;DHT22;38441;52.894;6.040;2023-04-30T19:09:33;15.80;99.90
52531;DHT22;38441;52.894;6.040;2023-04-30T19:12:01;13.80;99.90
52531;DHT22;38441;52.894;6.040;2023-04-30T19:14:27;15.80;99.90
52531;DHT22;38441;52.894;6.040;2023-04-30T19:16:53;14.60;99.90
52531;DHT22;38441;52.894;6.040;2023-04-30T19:19:19;14.20;99.90
52531;DHT22;38441;52.894;6.040;2023-04-30T19:21:45;14.80;99.90
52531;DHT22;38441;52.894;6.040;2023-04-30T19:24:10;12.70;99.90
52531;DHT22;38441;52.894;6.040;2023-04-30T19:26:36;14.10;99.90
52531;DHT22;38441;52.894;6.040;2023-04-30T19:29:02;14.60;99.90
52531;DHT22;38441;52.894;6.040;2023-04-30T19:31:28;14.80;99.90
52531;DHT22;38441;52.894;6.040;2023-04-30T19:33:53;14.70;99.90
52531;DHT22;38441;52.894;6.040;2023-04-30T19:36:19;14.40;99.90
52531;DHT22;38441;52.894;6.040;2023-04-30T19:38:45;14.00;99.90
52531;DHT22;38441;52.894;6.040;2023-04-30T19:41:10;15.50;99.90
52531;DHT22;38441;52.894;6.040;2023-04-30T19:43:36;14.70;99.90
52531;DHT22;38441;52.894;6.040;2023-04-30T19:46:02;15.10;99.90
52531;DHT22;38441;52.894;6.040;2023-04-30T19:48:28;15.40;99.90
52531;DHT22;38441;52.894;6.040;2023-04-30T19:50:55;13.90;99.90
52531;DHT22;38441;52.894;6.040;2023-04-30T19:53:22;14.50;99.90
52531;DHT22;38441;52.894;6.040;2023-04-30T19:55:51;13.10;99.90
52531;DHT22;38441;52.894;6.040;2023-04-30T19:58:17;15.30;99.90
52531;DHT22;38441;52.894;6.040;2023-04-30T20:00:44;14.20;99.90
52531;DHT22;38441;52.894;6.040;2023-04-30T20:03:11;14.10;99.90
52531;DHT22;38441;52.894;6.040;2023-04-30T20:05:37;14.10;99.90
52531;DHT22;38441;52.894;6.040;2023-04-30T20:08:05;12.90;99.90
52531;DHT22;38441;52.894;6.040;2023-04-30T20:10:32;13.10;99.90
52531;DHT22;38441;52.894;6.040;2023-04-30T20:13:01;14.10;99.90
52531;DHT22;38441;52.894;6.040;2023-04-30T20:15:26;13.50;99.90
52531;DHT22;38441;52.894;6.040;2023-04-30T20:17:52;13.90;99.90
52531;DHT22;38441;52.894;6.040;2023-04-30T20:20:19;13.80;99.90
52531;DHT22;38441;52.894;6.040;2023-04-30T20:22:47;14.00;99.90
52531;DHT22;38441;52.894;6.040;2023-04-30T20:25:14;14.40;99.90
52531;DHT22;38441;52.894;6.040;2023-04-30T20:27:40;13.80;99.90
52531;DHT22;38441;52.894;6.040;2023-04-30T20:30:06;13.60;99.90
52531;DHT22;38441;52.894;6.040;2023-04-30T20:32:33;12.20;99.90
52531;DHT22;38441;52.894;6.040;2023-04-30T20:35:00;14.20;99.90
52531;DHT22;38441;52.894;6.040;2023-04-30T20:37:27;13.80;99.90
52531;DHT22;38441;52.894;6.040;2023-04-30T20:39:52;12.30;99.90
52531;DHT22;38441;52.894;6.040;2023-04-30T20:42:18;13.70;99.90
52531;DHT22;38441;52.894;6.040;2023-04-30T20:44:44;12.40;99.90
52531;DHT22;38441;52.894;6.040;2023-04-30T20:47:10;13.20;99.90
52531;DHT22;38441;52.894;6.040;2023-04-30T20:49:39;13.90;99.90
52531;DHT22;38441;52.894;6.040;2023-04-30T20:52:06;11.90;99.90
52531;DHT22;38441;52.894;6.040;2023-04-30T20:54:31;13.10;99.90
52531;DHT22;38441;52.894;6.040;2023-04-30T20:56:57;13.20;99.90
52531;DHT22;38441;52.894;6.040;2023-04-30T20:59:22;12.80;99.90
52531;DHT22;38441;52.894;6.040;2023-04-30T21:01:48;12.90;99.90
52531;DHT22;38441;52.894;6.040;2023-04-30T21:04:14;12.90;99.90
52531;DHT22;38441;52.894;6.040;2023-04-30T21:06:39;11.70;99.90
52531;DHT22;38441;52.894;6.040;2023-04-30T21:09:05;12.80;99.90
52531;DHT22;38441;52.894;6.040;2023-04-30T21:11:31;12.50;99.90
52531;DHT22;38441;52.894;6.040;2023-04-30T21:13:57;11.00;99.90
52531;DHT22;38441;52.894;6.040;2023-04-30T21:16:23;11.60;99.90
52531;DHT22;38441;52.894;6.040;2023-04-30T21:18:48;12.80;99.90
52531;DHT22;38441;52.894;6.040;2023-04-30T21:21:14;13.90;99.90
52531;DHT22;38441;52.894;6.040;2023-04-30T21:23:41;12.20;99.90
52531;DHT22;38441;52.894;6.040;2023-04-30T21:26:07;11.30;99.90
52531;DHT22;38441;52.894;6.040;2023-04-30T21:28:33;11.30;99.90
52531;DHT22;38441;52.894;6.040;2023-04-30T21:31:06;12.30;99.90
52531;DHT22;38441;52.894;6.040;2023-04-30T21:33:33;11.40;99.90
52531;DHT22;38441;52.894;6.040;2023-04-30T21:35:58;11.40;99.90
52531;DHT22;38441;52.894;6.040;2023-04-30T21:38:24;11.40;99.90
52531;DHT22;38441;52.894;6.040;2023-04-30T21:40:50;12.80;99.90
52531;DHT22;38441;52.894;6.040;2023-04-30T21:43:16;12.60;99.90
52531;DHT22;38441;52.894;6.040;2023-04-30T21:45:42;11.40;99.90
52531;DHT22;38441;52.894;6.040;2023-04-30T21:48:08;11.40;99.90
52531;DHT22;38441;52.894;6.040;2023-04-30T21:50:34;12.30;99.90
52531;DHT22;38441;52.894;6.040;2023-04-30T21:53:00;11.80;99.90
52531;DHT22;38441;52.894;6.040;2023-04-30T21:55:26;11.10;99.90
52531;DHT22;38441;52.894;6.040;2023-04-30T21:57:52;12.00;99.90
52531;DHT22;38441;52.894;6.040;2023-04-30T22:00:18;12.30;99.90
52531;DHT22;38441;52.894;6.040;2023-04-30T22:02:43;11.10;99.90